createdAt,value
2022-12-15T00:00:05.930Z,18.42
2022-12-15T00:03:10.227Z,18.90
2022-12-15T00:06:14.269Z,18.75
2022-12-15T00:12:24.832Z,15.98
2022-12-15T00:15:28.758Z,19.63
2022-12-15T00:18:32.608Z,19.42
2022-12-15T00:21:36.531Z,21.45
2022-12-15T00:27:44.211Z,16.45
2022-12-15T00:30:49.739Z,18.58
2022-12-15T00:33:54.198Z,18.27
2022-12-15T00:39:43.798Z,21.58
2022-12-15T00:42:32.269Z,21.23
2022-12-15T00:45:17.545Z,14.93
2022-12-15T00:48:02.997Z,21.60
2022-12-15T00:50:54.351Z,24.58
2022-12-15T00:53:59.652Z,23.77
2022-12-15T00:57:04.007Z,18.52
2022-12-15T01:00:07.881Z,18.73
2022-12-15T01:03:11.959Z,20.52
2022-12-15T01:06:16.059Z,19.70
2022-12-15T01:09:20.988Z,21.95
2022-12-15T01:12:25.243Z,17.60
2022-12-15T01:15:29.385Z,21.08
2022-12-15T01:18:33.989Z,20.33
2022-12-15T01:21:23.257Z,15.80
2022-12-15T01:24:09.920Z,17.70
2022-12-15T01:26:55.338Z,15.95
2022-12-15T01:29:40.867Z,17.52
2022-12-15T01:32:27.700Z,20.92
2022-12-15T01:35:13.368Z,16.20
2022-12-15T01:37:58.890Z,19.08
2022-12-15T01:40:52.993Z,18.58
2022-12-15T01:43:40.461Z,19.17
2022-12-15T01:46:26.342Z,18.35
2022-12-15T01:49:20.805Z,16.55
2022-12-15T01:52:09.119Z,21.25
2022-12-15T01:54:58.285Z,21.98
2022-12-15T01:57:44.004Z,19.38
2022-12-15T02:00:30.482Z,14.65
2022-12-15T02:03:16.121Z,13.27
2022-12-15T02:06:03.032Z,16.45
2022-12-15T02:08:50.808Z,18.70
2022-12-15T02:12:05.651Z,20.13
2022-12-15T02:15:05.993Z,19.75
2022-12-15T02:18:08.070Z,15.35
2022-12-15T02:21:02.079Z,18.20
2022-12-15T02:24:05.773Z,17.35
2022-12-15T02:30:06.629Z,18.80
2022-12-15T02:33:04.167Z,20.23
2022-12-15T02:36:12.895Z,20.98
2022-12-15T02:38:58.057Z,23.30
2022-12-15T02:41:46.249Z,15.20
2022-12-15T02:44:36.363Z,16.02
2022-12-15T02:47:32.454Z,19.98
2022-12-15T02:50:24.387Z,21.52
2022-12-15T02:53:25.191Z,17.80
2022-12-15T02:56:41.525Z,23.05
2022-12-15T02:59:56.944Z,19.88
2022-12-15T03:02:48.229Z,21.85
2022-12-15T03:05:34.114Z,18.40
2022-12-15T03:08:21.087Z,20.27
2022-12-15T03:11:07.093Z,16.17
2022-12-15T03:13:53.996Z,14.80
2022-12-15T03:16:39.763Z,20.48
2022-12-15T03:19:25.985Z,18.13
2022-12-15T03:22:11.632Z,18.17
2022-12-15T03:24:57.005Z,23.23
2022-12-15T03:27:42.480Z,18.30
2022-12-15T03:30:28.032Z,22.15
2022-12-15T03:33:13.610Z,20.13
2022-12-15T03:35:58.922Z,17.35
2022-12-15T03:38:44.560Z,19.40
2022-12-15T03:41:30.135Z,15.23
2022-12-15T03:44:15.717Z,13.55
2022-12-15T03:47:03.595Z,15.65
2022-12-15T03:49:49.160Z,12.93
2022-12-15T03:52:36.055Z,21.80
2022-12-15T03:55:22.657Z,26.45
2022-12-15T03:58:08.098Z,17.77
2022-12-15T04:00:53.724Z,16.67
2022-12-15T04:03:39.510Z,20.73
2022-12-15T04:06:25.145Z,16.95
2022-12-15T04:09:10.721Z,20.17
2022-12-15T04:11:56.300Z,15.23
2022-12-15T04:14:42.618Z,15.05
2022-12-15T04:17:28.034Z,16.85
2022-12-15T04:20:13.787Z,16.73
2022-12-15T04:23:00.410Z,21.40
2022-12-15T04:26:04.277Z,18.85
2022-12-15T04:29:08.151Z,17.48
2022-12-15T04:32:12.258Z,18.30
2022-12-15T04:35:16.254Z,17.10
2022-12-15T04:38:20.408Z,18.52
2022-12-15T04:41:24.884Z,17.35
2022-12-15T04:44:29.639Z,16.95
2022-12-15T04:47:33.718Z,17.30
2022-12-15T04:50:37.955Z,20.30
2022-12-15T04:53:41.903Z,14.65
2022-12-15T04:56:45.887Z,18.20
2022-12-15T04:59:53.755Z,14.90
2022-12-15T05:02:57.687Z,13.85
2022-12-15T05:06:01.651Z,14.90
2022-12-15T05:09:05.401Z,18.38
2022-12-15T05:12:09.424Z,18.50
2022-12-15T05:15:13.325Z,17.65
2022-12-15T05:18:17.424Z,24.85
2022-12-15T05:21:21.437Z,20.17
2022-12-15T05:24:25.471Z,15.57
2022-12-15T05:27:29.390Z,16.50
2022-12-15T05:30:33.317Z,19.08
2022-12-15T05:33:19.023Z,12.43
2022-12-15T05:36:04.825Z,19.40
2022-12-15T05:38:53.403Z,16.02
2022-12-15T05:41:38.885Z,20.15
2022-12-15T05:44:26.079Z,18.80
2022-12-15T05:47:11.849Z,19.10
2022-12-15T05:49:57.193Z,15.68
2022-12-15T05:52:46.292Z,15.15
2022-12-15T05:55:34.556Z,19.95
2022-12-15T05:58:20.140Z,15.02
2022-12-15T06:01:15.262Z,13.38
2022-12-15T06:04:01.514Z,16.08
2022-12-15T06:06:47.028Z,18.38
2022-12-15T06:09:32.558Z,22.52
2022-12-15T06:12:18.163Z,15.45
2022-12-15T06:15:03.902Z,13.07
2022-12-15T06:17:49.670Z,16.48
2022-12-15T06:20:35.289Z,13.80
2022-12-15T06:23:20.890Z,17.40
2022-12-15T06:26:15.602Z,19.83
2022-12-15T06:29:03.448Z,15.40
2022-12-15T06:31:48.750Z,20.83
2022-12-15T06:34:34.215Z,12.70
2022-12-15T06:37:19.838Z,16.45
2022-12-15T06:40:05.816Z,15.00
2022-12-15T06:42:51.352Z,16.50
2022-12-15T06:45:37.028Z,18.25
2022-12-15T06:48:23.069Z,15.63
2022-12-15T06:51:14.978Z,19.10
2022-12-15T06:54:01.965Z,20.25
2022-12-15T06:56:49.919Z,16.23
2022-12-15T06:59:35.537Z,15.00
2022-12-15T07:02:26.883Z,23.20
2022-12-15T07:05:14.627Z,16.02
2022-12-15T07:07:59.749Z,18.98
2022-12-15T07:10:45.283Z,14.95
2022-12-15T07:13:31.143Z,16.08
2022-12-15T07:16:17.835Z,16.27
2022-12-15T07:19:03.272Z,17.00
2022-12-15T07:21:48.623Z,20.45
2022-12-15T07:24:34.381Z,22.25
2022-12-15T07:27:19.802Z,21.33
2022-12-15T07:30:07.574Z,16.63
2022-12-15T07:32:53.045Z,14.88
2022-12-15T07:35:38.192Z,18.50
2022-12-15T07:38:23.700Z,14.25
2022-12-15T07:41:10.181Z,18.05
2022-12-15T07:43:56.213Z,18.00
2022-12-15T07:46:46.731Z,20.02
2022-12-15T07:49:31.996Z,19.45
2022-12-15T07:52:17.538Z,17.02
2022-12-15T07:55:03.553Z,17.27
2022-12-15T07:57:48.977Z,15.52
2022-12-15T08:00:34.509Z,16.70
2022-12-15T08:03:20.286Z,19.90
2022-12-15T08:06:10.483Z,20.00
2022-12-15T08:08:55.810Z,18.38
2022-12-15T08:11:41.280Z,19.73
2022-12-15T08:14:28.730Z,18.55
2022-12-15T08:17:14.054Z,21.60
2022-12-15T08:20:01.469Z,17.25
2022-12-15T08:22:52.060Z,15.82
2022-12-15T08:25:37.693Z,18.60
2022-12-15T08:28:25.380Z,21.15
2022-12-15T08:31:16.909Z,24.73
2022-12-15T08:34:04.170Z,19.27
2022-12-15T08:36:49.578Z,21.40
2022-12-15T08:39:35.068Z,19.50
2022-12-15T08:42:20.650Z,23.48
2022-12-15T08:45:06.700Z,20.40
2022-12-15T08:47:52.226Z,19.63
2022-12-15T08:50:37.546Z,17.65
2022-12-15T08:53:31.266Z,16.90
2022-12-15T08:56:19.887Z,26.00
2022-12-15T08:59:05.568Z,20.67
2022-12-15T09:01:51.021Z,20.90
2022-12-15T09:04:36.476Z,17.33
2022-12-15T09:07:22.131Z,18.05
2022-12-15T09:10:07.968Z,17.08
2022-12-15T09:12:53.538Z,18.63
2022-12-15T09:16:08.229Z,19.80
2022-12-15T09:18:51.941Z,15.20
2022-12-15T09:21:37.279Z,16.08
2022-12-15T09:24:33.919Z,18.88
2022-12-15T09:27:20.711Z,18.13
2022-12-15T09:30:07.149Z,19.88
2022-12-15T09:32:52.697Z,17.95
2022-12-15T09:35:38.228Z,17.35
2022-12-15T09:38:23.749Z,15.27
2022-12-15T09:41:15.120Z,20.30
2022-12-15T09:44:15.954Z,17.05
2022-12-15T09:47:07.277Z,18.10
2022-12-15T09:49:57.683Z,17.42
2022-12-15T09:52:50.196Z,19.08
2022-12-15T09:55:36.078Z,20.15
2022-12-15T09:58:43.007Z,17.95
2022-12-15T10:01:56.187Z,22.25
2022-12-15T10:04:53.649Z,18.70
2022-12-15T10:07:46.326Z,18.48
2022-12-15T10:10:54.420Z,16.42
2022-12-15T10:13:58.624Z,18.85
2022-12-15T10:16:57.632Z,17.52
2022-12-15T10:19:52.025Z,19.58
2022-12-15T10:22:38.139Z,18.98
2022-12-15T10:25:30.420Z,19.17
2022-12-15T10:28:16.343Z,17.53
2022-12-15T10:31:12.700Z,19.17
2022-12-15T10:34:10.188Z,18.10
2022-12-15T10:36:57.000Z,25.60
2022-12-15T10:39:44.741Z,28.88
2022-12-15T10:42:45.624Z,31.48
2022-12-15T10:46:14.383Z,33.08
2022-12-15T10:49:05.821Z,26.77
2022-12-15T10:52:00.565Z,20.33
2022-12-15T10:54:49.367Z,20.08
2022-12-15T10:57:35.961Z,19.63
2022-12-15T11:00:31.541Z,19.38
2022-12-15T11:03:26.101Z,20.52
2022-12-15T11:06:21.738Z,20.60
2022-12-15T11:09:20.922Z,22.38
2022-12-15T11:12:39.429Z,20.83
2022-12-15T11:15:25.250Z,23.33
2022-12-15T11:18:35.292Z,20.52
2022-12-15T11:21:27.507Z,21.55
2022-12-15T11:24:22.422Z,25.40
2022-12-15T11:27:28.620Z,22.23
2022-12-15T11:30:15.506Z,20.23
2022-12-15T11:33:02.155Z,23.10
2022-12-15T11:36:38.169Z,23.85
2022-12-15T11:39:49.214Z,19.90
2022-12-15T11:42:47.822Z,21.50
2022-12-15T11:45:37.641Z,18.55
2022-12-15T11:48:36.861Z,21.45
2022-12-15T11:51:32.072Z,21.92
2022-12-15T11:54:40.624Z,16.65
2022-12-15T11:57:54.170Z,23.65
2022-12-15T12:00:50.697Z,18.77
2022-12-15T12:03:56.061Z,21.08
2022-12-15T12:06:58.536Z,20.05
2022-12-15T12:10:02.554Z,18.95
2022-12-15T12:15:58.001Z,20.30
2022-12-15T12:18:55.509Z,16.42
2022-12-15T12:21:45.492Z,21.17
2022-12-15T12:24:51.601Z,23.15
2022-12-15T12:30:57.707Z,22.75
2022-12-15T12:33:48.716Z,22.08
2022-12-15T12:36:34.544Z,23.15
2022-12-15T12:39:24.345Z,21.77
2022-12-15T12:42:20.203Z,23.00
2022-12-15T12:45:06.030Z,19.80
2022-12-15T12:47:54.199Z,24.48
2022-12-15T12:50:39.501Z,21.88
2022-12-15T12:53:33.349Z,22.33
2022-12-15T12:56:44.289Z,22.48
2022-12-15T12:59:30.741Z,26.50
2022-12-15T13:02:24.635Z,24.42
2022-12-15T13:05:24.675Z,28.08
2022-12-15T13:08:09.803Z,23.98
2022-12-15T13:10:56.491Z,23.83
2022-12-15T13:13:48.491Z,27.80
2022-12-15T13:16:40.533Z,24.55
2022-12-15T13:19:59.059Z,24.50
2022-12-15T13:22:44.886Z,25.95
2022-12-15T13:25:40.373Z,24.33
2022-12-15T13:28:39.061Z,25.85
2022-12-15T13:31:27.832Z,21.65
2022-12-15T13:34:25.613Z,23.80
2022-12-15T13:37:49.114Z,24.75
2022-12-15T13:40:35.131Z,24.10
2022-12-15T13:43:26.557Z,23.52
2022-12-15T13:46:19.704Z,25.13
2022-12-15T13:52:02.867Z,27.42
2022-12-15T13:54:58.836Z,23.20
2022-12-15T13:58:14.493Z,26.10
2022-12-15T14:01:00.093Z,24.17
2022-12-15T14:04:18.120Z,22.75
2022-12-15T14:07:06.558Z,23.92
2022-12-15T14:09:51.868Z,19.17
2022-12-15T14:12:40.068Z,25.55
2022-12-15T14:15:29.800Z,24.02
2022-12-15T14:18:28.232Z,25.52
2022-12-15T14:21:23.445Z,23.23
2022-12-15T14:24:39.637Z,23.90
2022-12-15T14:27:28.601Z,23.90
2022-12-15T14:30:24.647Z,26.98
2022-12-15T14:33:15.682Z,20.40
2022-12-15T14:36:02.371Z,20.00
2022-12-15T14:38:55.656Z,22.77
2022-12-15T14:41:48.965Z,21.17
2022-12-15T14:44:49.940Z,24.80
2022-12-15T14:47:37.377Z,23.60
2022-12-15T14:50:25.370Z,24.63
2022-12-15T14:53:17.904Z,21.42
2022-12-15T14:56:22.583Z,24.60
2022-12-15T14:59:19.935Z,21.77
2022-12-15T15:02:14.053Z,25.95
2022-12-15T15:03:12.731Z,23.38
2022-12-15T15:05:07.665Z,25.02
2022-12-15T15:07:56.864Z,24.30
2022-12-15T15:10:42.767Z,24.42
2022-12-15T15:13:40.709Z,23.52
2022-12-15T15:16:27.445Z,28.45
2022-12-15T15:19:22.553Z,22.38
2022-12-15T15:22:32.445Z,22.90
2022-12-15T15:25:39.433Z,28.08
2022-12-15T15:28:44.830Z,26.10
2022-12-15T15:31:40.943Z,27.73
2022-12-15T15:34:27.993Z,24.45
2022-12-15T15:37:26.192Z,24.42
2022-12-15T15:40:15.805Z,26.35
2022-12-15T15:43:02.292Z,22.45
2022-12-15T15:45:50.288Z,22.02
2022-12-15T15:49:09.824Z,22.77
2022-12-15T15:51:56.463Z,22.65
2022-12-15T15:54:43.006Z,26.25
2022-12-15T15:57:28.574Z,30.73
2022-12-15T16:00:19.661Z,22.98
2022-12-15T16:03:05.137Z,24.30
2022-12-15T16:05:50.889Z,25.67
2022-12-15T16:08:37.456Z,20.15
2022-12-15T16:11:24.697Z,21.08
2022-12-15T16:14:15.686Z,22.23
2022-12-15T16:17:01.214Z,21.13
2022-12-15T16:19:46.799Z,26.08
2022-12-15T16:22:33.719Z,27.45
2022-12-15T16:25:42.393Z,36.70
2022-12-15T16:28:33.161Z,21.90
2022-12-15T16:31:32.973Z,37.15
2022-12-15T16:34:24.658Z,38.53
2022-12-15T16:37:27.429Z,23.52
2022-12-15T16:40:25.187Z,25.57
2022-12-15T16:43:17.506Z,20.33
2022-12-15T16:46:03.289Z,29.40
2022-12-15T16:48:48.993Z,30.80
2022-12-15T16:51:40.204Z,23.25
2022-12-15T16:54:28.465Z,23.48
2022-12-15T16:57:14.823Z,26.98
2022-12-15T17:00:01.756Z,22.98
2022-12-15T17:02:47.376Z,29.90
2022-12-15T17:05:35.911Z,31.63
2022-12-15T17:08:26.311Z,24.85
2022-12-15T17:11:21.202Z,29.42
2022-12-15T17:14:07.546Z,28.23
2022-12-15T17:16:52.764Z,28.13
2022-12-15T17:19:38.631Z,32.30
2022-12-15T17:22:26.899Z,29.35
2022-12-15T17:25:27.140Z,29.52
2022-12-15T17:28:30.228Z,34.97
2022-12-15T17:31:30.324Z,33.88
2022-12-15T17:34:28.462Z,30.98
2022-12-15T17:37:14.327Z,34.38
2022-12-15T17:39:59.912Z,32.22
2022-12-15T17:42:46.276Z,35.03
2022-12-15T17:45:31.827Z,35.00
2022-12-15T17:48:18.141Z,39.65
2022-12-15T17:51:15.754Z,37.75
2022-12-15T17:54:02.512Z,31.88
2022-12-15T17:56:49.978Z,33.05
2022-12-15T17:59:35.676Z,35.78
2022-12-15T18:02:21.283Z,40.83
2022-12-15T18:05:07.537Z,30.98
2022-12-15T18:08:06.985Z,33.15
2022-12-15T18:10:55.957Z,37.67
2022-12-15T18:13:42.056Z,36.78
2022-12-15T18:16:27.992Z,32.53
2022-12-15T18:19:13.758Z,36.70
2022-12-15T18:21:59.433Z,32.38
2022-12-15T18:24:46.113Z,29.85
2022-12-15T18:27:31.552Z,29.63
2022-12-15T18:30:19.869Z,35.95
2022-12-15T18:33:05.049Z,31.67
2022-12-15T18:35:51.926Z,31.17
2022-12-15T18:38:40.175Z,32.33
2022-12-15T18:41:25.532Z,34.20
2022-12-15T18:44:26.432Z,31.95
2022-12-15T18:47:19.810Z,32.90
2022-12-15T18:53:02.484Z,32.33
2022-12-15T18:55:48.406Z,32.97
2022-12-15T18:58:36.442Z,31.05
2022-12-15T19:01:22.371Z,36.85
2022-12-15T19:04:07.747Z,32.10
2022-12-15T19:06:53.377Z,32.83
2022-12-15T19:09:39.458Z,24.92
2022-12-15T19:12:24.941Z,24.70
2022-12-15T19:15:17.013Z,27.45
2022-12-15T19:18:20.749Z,23.25
2022-12-15T19:21:38.784Z,28.65
2022-12-15T19:24:45.407Z,25.00
2022-12-15T19:27:30.645Z,23.83
2022-12-15T19:30:18.021Z,30.13
2022-12-15T19:33:03.199Z,30.48
2022-12-15T19:35:51.437Z,29.80
2022-12-15T19:38:36.898Z,30.80
2022-12-15T19:41:22.315Z,34.38
2022-12-15T19:44:14.948Z,36.70
2022-12-15T19:47:00.672Z,32.15
2022-12-15T19:49:46.093Z,29.55
2022-12-15T19:52:31.539Z,28.15
2022-12-15T19:55:20.613Z,32.42
2022-12-15T19:58:36.380Z,30.70
2022-12-15T20:01:21.986Z,28.08
2022-12-15T20:04:07.616Z,31.20
2022-12-15T20:06:53.792Z,32.17
2022-12-15T20:09:43.467Z,31.80
2022-12-15T20:12:28.964Z,27.40
2022-12-15T20:15:17.932Z,28.60
2022-12-15T20:18:03.676Z,29.33
2022-12-15T20:20:50.043Z,30.65
2022-12-15T20:23:36.006Z,30.58
2022-12-15T20:26:24.378Z,30.42
2022-12-15T20:29:28.842Z,27.48
2022-12-15T20:32:20.672Z,28.27
2022-12-15T20:35:06.381Z,32.78
2022-12-15T20:37:52.607Z,27.00
2022-12-15T20:40:38.386Z,33.83
2022-12-15T20:43:25.468Z,31.13
2022-12-15T20:46:15.828Z,27.38
2022-12-15T20:49:01.293Z,31.95
2022-12-15T20:51:48.050Z,24.98
2022-12-15T20:54:33.300Z,26.23
2022-12-15T20:57:18.754Z,27.20
2022-12-15T21:00:09.101Z,23.35
2022-12-15T21:02:55.395Z,26.13
2022-12-15T21:05:41.462Z,24.55
2022-12-15T21:08:31.858Z,24.10
2022-12-15T21:11:20.187Z,22.10
2022-12-15T21:14:10.552Z,24.02
2022-12-15T21:16:56.667Z,24.05
2022-12-15T21:19:42.636Z,27.67
2022-12-15T21:22:28.618Z,24.50
2022-12-15T21:25:25.939Z,29.20
2022-12-15T21:28:11.903Z,24.63
2022-12-15T21:30:57.241Z,24.13
2022-12-15T21:33:43.061Z,20.85
2022-12-15T21:36:28.508Z,24.88
2022-12-15T21:39:29.742Z,23.80
2022-12-15T21:42:18.127Z,20.85
2022-12-15T21:45:13.514Z,21.25
2022-12-15T21:48:19.143Z,22.23
2022-12-15T21:51:05.640Z,26.63
2022-12-15T21:53:51.935Z,29.58
2022-12-15T21:56:37.311Z,21.25
2022-12-15T21:59:24.953Z,21.83
2022-12-15T22:02:26.958Z,24.83
2022-12-15T22:05:22.972Z,23.52
2022-12-15T22:08:20.772Z,22.00
2022-12-15T22:11:21.814Z,25.38
2022-12-15T22:14:26.974Z,26.80
2022-12-15T22:17:17.014Z,25.45
2022-12-15T22:20:05.873Z,25.52
2022-12-15T22:22:51.657Z,19.02
2022-12-15T22:25:37.243Z,24.33
2022-12-15T22:28:28.177Z,22.33
2022-12-15T22:31:14.011Z,21.20
2022-12-15T22:34:00.028Z,22.15
2022-12-15T22:36:45.904Z,28.63
2022-12-15T22:39:32.237Z,26.45
2022-12-15T22:42:17.949Z,25.85
2022-12-15T22:45:04.692Z,26.77
2022-12-15T22:47:51.489Z,24.17
2022-12-15T22:50:37.144Z,24.90
2022-12-15T22:53:24.036Z,23.35
2022-12-15T22:56:25.928Z,26.27
2022-12-15T22:59:17.443Z,28.58
2022-12-15T23:02:03.315Z,18.58
2022-12-15T23:04:49.251Z,23.33
2022-12-15T23:07:37.391Z,24.23
2022-12-15T23:10:41.416Z,25.95
2022-12-15T23:13:26.927Z,23.27
2022-12-15T23:16:21.674Z,27.35
2022-12-15T23:19:08.753Z,19.92
2022-12-15T23:21:58.810Z,24.92
2022-12-15T23:24:46.584Z,22.35
2022-12-15T23:27:35.997Z,25.52
2022-12-15T23:30:22.140Z,25.52
2022-12-15T23:33:10.337Z,19.70
2022-12-15T23:35:57.941Z,23.40
2022-12-15T23:38:44.684Z,23.10
2022-12-15T23:41:30.354Z,26.02
2022-12-15T23:44:16.032Z,26.77
2022-12-15T23:47:01.703Z,26.42
2022-12-15T23:49:47.180Z,23.92
2022-12-15T23:52:33.517Z,26.40
2022-12-15T23:55:19.301Z,21.83
2022-12-15T23:58:05.066Z,24.63
